sensor_id;sensor_type;location;lat;lon;timestamp;temperature;humidity
48836;DHT22;62581;47.342;7.908;2022-11-15T00:00:45;8.60;99.90
48836;DHT22;62581;47.342;7.908;2022-11-15T00:03:13;8.60;99.90
48836;DHT22;62581;47.342;7.908;2022-11-15T00:05:39;8.60;99.90
48836;DHT22;62581;47.342;7.908;2022-11-15T00:08:06;8.60;99.90
48836;DHT22;62581;47.342;7.908;2022-11-15T00:10:34;8.60;99.90
48836;DHT22;62581;47.342;7.908;2022-11-15T00:13:03;8.60;99.90
48836;DHT22;62581;47.342;7.908;2022-11-15T00:15:30;8.50;99.90
48836;DHT22;62581;47.342;7.908;2022-11-15T00:17:57;8.50;99.90
48836;DHT22;62581;47.342;7.908;2022-11-15T00:20:24;8.60;99.90
48836;DHT22;62581;47.342;7.908;2022-11-15T00:22:51;8.60;99.90
48836;DHT22;62581;47.342;7.908;2022-11-15T00:25:17;8.60;99.90
48836;DHT22;62581;47.342;7.908;2022-11-15T00:27:45;8.60;99.90
48836;DHT22;62581;47.342;7.908;2022-11-15T00:30:12;8.60;99.90
48836;DHT22;62581;47.342;7.908;2022-11-15T00:32:39;8.50;99.90
48836;DHT22;62581;47.342;7.908;2022-11-15T00:35:06;8.40;99.90
48836;DHT22;62581;47.342;7.908;2022-11-15T00:37:33;8.40;99.90
48836;DHT22;62581;47.342;7.908;2022-11-15T00:40:00;8.40;99.90
48836;DHT22;62581;47.342;7.908;2022-11-15T00:42:26;8.40;99.90
48836;DHT22;62581;47.342;7.908;2022-11-15T00:44:54;8.40;99.90
48836;DHT22;62581;47.342;7.908;2022-11-15T00:47:21;8.40;99.90
48836;DHT22;62581;47.342;7.908;2022-11-15T00:49:48;8.40;99.90
48836;DHT22;62581;47.342;7.908;2022-11-15T00:52:15;8.40;99.90
48836;DHT22;62581;47.342;7.908;2022-11-15T00:54:42;8.50;99.90
48836;DHT22;62581;47.342;7.908;2022-11-15T00:57:08;8.60;99.90
48836;DHT22;62581;47.342;7.908;2022-11-15T00:59:35;8.50;99.90
48836;DHT22;62581;47.342;7.908;2022-11-15T01:02:03;8.50;99.90
48836;DHT22;62581;47.342;7.908;2022-11-15T01:04:30;8.50;99.90
48836;DHT22;62581;47.342;7.908;2022-11-15T01:06:57;8.50;99.90
48836;DHT22;62581;47.342;7.908;2022-11-15T01:09:24;8.50;99.90
48836;DHT22;62581;47.342;7.908;2022-11-15T01:11:50;8.50;99.90
48836;DHT22;62581;47.342;7.908;2022-11-15T01:14:18;8.40;99.90
48836;DHT22;62581;47.342;7.908;2022-11-15T01:16:45;8.50;99.90
48836;DHT22;62581;47.342;7.908;2022-11-15T01:19:13;8.50;99.90
48836;DHT22;62581;47.342;7.908;2022-11-15T01:21:40;8.60;99.90
48836;DHT22;62581;47.342;7.908;2022-11-15T01:24:07;8.60;99.90
48836;DHT22;62581;47.342;7.908;2022-11-15T01:26:34;8.60;99.90
48836;DHT22;62581;47.342;7.908;2022-11-15T01:29:01;8.60;99.90
48836;DHT22;62581;47.342;7.908;2022-11-15T01:31:27;8.70;99.90
48836;DHT22;62581;47.342;7.908;2022-11-15T01:33:54;8.70;99.90
48836;DHT22;62581;47.342;7.908;2022-11-15T01:36:22;8.70;99.90
48836;DHT22;62581;47.342;7.908;2022-11-15T01:38:52;8.70;99.90
48836;DHT22;62581;47.342;7.908;2022-11-15T01:41:20;8.70;99.90
48836;DHT22;62581;47.342;7.908;2022-11-15T01:43:48;8.60;99.90
48836;DHT22;62581;47.342;7.908;2022-11-15T01:46:21;8.60;99.90
48836;DHT22;62581;47.342;7.908;2022-11-15T01:48:48;8.60;99.90
48836;DHT22;62581;47.342;7.908;2022-11-15T01:51:17;8.50;99.90
48836;DHT22;62581;47.342;7.908;2022-11-15T01:53:47;8.50;99.90
48836;DHT22;62581;47.342;7.908;2022-11-15T01:56:16;8.50;99.90
48836;DHT22;62581;47.342;7.908;2022-11-15T01:58:44;8.50;99.90
48836;DHT22;62581;47.342;7.908;2022-11-15T02:01:11;8.50;99.90
48836;DHT22;62581;47.342;7.908;2022-11-15T02:03:39;8.50;99.90
48836;DHT22;62581;47.342;7.908;2022-11-15T02:06:08;8.50;99.90
48836;DHT22;62581;47.342;7.908;2022-11-15T02:08:35;8.50;99.90
48836;DHT22;62581;47.342;7.908;2022-11-15T02:11:07;8.60;99.90
48836;DHT22;62581;47.342;7.908;2022-11-15T02:13:33;8.60;99.90
48836;DHT22;62581;47.342;7.908;2022-11-15T02:16:03;8.60;99.90
48836;DHT22;62581;47.342;7.908;2022-11-15T02:18:35;8.60;99.90
48836;DHT22;62581;47.342;7.908;2022-11-15T02:21:07;8.60;99.90
48836;DHT22;62581;47.342;7.908;2022-11-15T02:29:06;8.60;99.90
48836;DHT22;62581;47.342;7.908;2022-11-15T02:31:39;8.60;99.90
48836;DHT22;62581;47.342;7.908;2022-11-15T02:34:08;8.60;99.90
48836;DHT22;62581;47.342;7.908;2022-11-15T02:36:40;8.60;99.90
48836;DHT22;62581;47.342;7.908;2022-11-15T02:39:10;8.60;99.90
48836;DHT22;62581;47.342;7.908;2022-11-15T02:41:41;8.60;99.90
48836;DHT22;62581;47.342;7.908;2022-11-15T02:44:13;8.50;99.90
48836;DHT22;62581;47.342;7.908;2022-11-15T02:46:43;8.50;99.90
48836;DHT22;62581;47.342;7.908;2022-11-15T02:49:30;8.50;99.90
48836;DHT22;62581;47.342;7.908;2022-11-15T02:51:58;8.50;99.90
48836;DHT22;62581;47.342;7.908;2022-11-15T02:54:25;8.50;99.90
48836;DHT22;62581;47.342;7.908;2022-11-15T02:56:53;8.50;99.90
48836;DHT22;62581;47.342;7.908;2022-11-15T02:59:29;8.50;99.90
48836;DHT22;62581;47.342;7.908;2022-11-15T03:02:03;8.50;99.90
48836;DHT22;62581;47.342;7.908;2022-11-15T03:04:35;8.60;99.90
48836;DHT22;62581;47.342;7.908;2022-11-15T03:07:05;8.70;99.90
48836;DHT22;62581;47.342;7.908;2022-11-15T03:09:34;8.70;99.90
48836;DHT22;62581;47.342;7.908;2022-11-15T03:12:03;8.70;99.90
48836;DHT22;62581;47.342;7.908;2022-11-15T03:14:32;8.70;99.90
48836;DHT22;62581;47.342;7.908;2022-11-15T03:17:03;8.70;99.90
48836;DHT22;62581;47.342;7.908;2022-11-15T03:19:34;8.70;99.90
48836;DHT22;62581;47.342;7.908;2022-11-15T03:22:04;8.70;99.90
48836;DHT22;62581;47.342;7.908;2022-11-15T03:24:33;8.80;99.90
48836;DHT22;62581;47.342;7.908;2022-11-15T03:27:01;8.80;99.90
48836;DHT22;62581;47.342;7.908;2022-11-15T03:29:29;8.80;99.90
48836;DHT22;62581;47.342;7.908;2022-11-15T03:31:59;8.70;99.90
48836;DHT22;62581;47.342;7.908;2022-11-15T03:34:30;8.70;99.90
48836;DHT22;62581;47.342;7.908;2022-11-15T03:36:58;8.80;99.90
48836;DHT22;62581;47.342;7.908;2022-11-15T03:39:25;8.80;99.90
48836;DHT22;62581;47.342;7.908;2022-11-15T03:42:06;8.80;99.90
48836;DHT22;62581;47.342;7.908;2022-11-15T03:44:36;8.80;99.90
48836;DHT22;62581;47.342;7.908;2022-11-15T03:47:07;8.80;99.90
48836;DHT22;62581;47.342;7.908;2022-11-15T03:49:38;8.80;99.90
48836;DHT22;62581;47.342;7.908;2022-11-15T03:52:07;8.80;99.90
48836;DHT22;62581;47.342;7.908;2022-11-15T03:54:36;8.80;99.90
48836;DHT22;62581;47.342;7.908;2022-11-15T03:57:02;8.90;99.90
48836;DHT22;62581;47.342;7.908;2022-11-15T03:59:29;8.80;99.90
48836;DHT22;62581;47.342;7.908;2022-11-15T04:01:56;8.80;99.90
48836;DHT22;62581;47.342;7.908;2022-11-15T04:04:23;8.80;99.90
48836;DHT22;62581;47.342;7.908;2022-11-15T04:06:51;8.80;99.90
48836;DHT22;62581;47.342;7.908;2022-11-15T04:09:17;8.80;99.90
48836;DHT22;62581;47.342;7.908;2022-11-15T04:11:44;8.80;99.90
48836;DHT22;62581;47.342;7.908;2022-11-15T04:14:11;8.80;99.90
48836;DHT22;62581;47.342;7.908;2022-11-15T04:16:38;8.80;99.90
48836;DHT22;62581;47.342;7.908;2022-11-15T04:19:05;8.90;99.90
48836;DHT22;62581;47.342;7.908;2022-11-15T04:21:48;8.90;99.90
48836;DHT22;62581;47.342;7.908;2022-11-15T04:24:33;8.90;99.90
48836;DHT22;62581;47.342;7.908;2022-11-15T04:27:00;8.90;99.90
48836;DHT22;62581;47.342;7.908;2022-11-15T04:29:27;8.90;99.90
48836;DHT22;62581;47.342;7.908;2022-11-15T04:32:03;8.90;99.90
48836;DHT22;62581;47.342;7.908;2022-11-15T04:34:30;8.90;99.90
48836;DHT22;62581;47.342;7.908;2022-11-15T04:36:57;8.90;99.90
48836;DHT22;62581;47.342;7.908;2022-11-15T04:39:43;9.00;99.90
48836;DHT22;62581;47.342;7.908;2022-11-15T04:42:10;9.00;99.90
48836;DHT22;62581;47.342;7.908;2022-11-15T04:44:37;9.00;99.90
48836;DHT22;62581;47.342;7.908;2022-11-15T04:47:04;9.00;99.90
48836;DHT22;62581;47.342;7.908;2022-11-15T04:49:31;9.00;99.90
48836;DHT22;62581;47.342;7.908;2022-11-15T04:51:58;9.00;99.90
48836;DHT22;62581;47.342;7.908;2022-11-15T04:54:25;9.00;99.90
48836;DHT22;62581;47.342;7.908;2022-11-15T04:56:53;9.00;99.90
48836;DHT22;62581;47.342;7.908;2022-11-15T04:59:20;9.10;99.90
48836;DHT22;62581;47.342;7.908;2022-11-15T05:01:46;9.10;99.90
48836;DHT22;62581;47.342;7.908;2022-11-15T05:04:13;9.10;99.90
48836;DHT22;62581;47.342;7.908;2022-11-15T05:06:45;9.10;99.90
48836;DHT22;62581;47.342;7.908;2022-11-15T05:09:12;9.10;99.90
48836;DHT22;62581;47.342;7.908;2022-11-15T05:11:39;9.10;99.90
48836;DHT22;62581;47.342;7.908;2022-11-15T05:14:07;9.10;99.90
48836;DHT22;62581;47.342;7.908;2022-11-15T05:16:34;9.10;99.90
48836;DHT22;62581;47.342;7.908;2022-11-15T05:19:01;9.10;99.90
48836;DHT22;62581;47.342;7.908;2022-11-15T05:21:28;9.10;99.90
48836;DHT22;62581;47.342;7.908;2022-11-15T05:23:55;9.10;99.90
48836;DHT22;62581;47.342;7.908;2022-11-15T05:26:22;9.00;99.90
48836;DHT22;62581;47.342;7.908;2022-11-15T05:28:51;9.00;99.90
48836;DHT22;62581;47.342;7.908;2022-11-15T05:31:19;8.90;99.90
48836;DHT22;62581;47.342;7.908;2022-11-15T05:33:46;8.90;99.90
48836;DHT22;62581;47.342;7.908;2022-11-15T05:36:14;8.90;99.90
48836;DHT22;62581;47.342;7.908;2022-11-15T05:38:43;8.90;99.90
48836;DHT22;62581;47.342;7.908;2022-11-15T05:41:10;8.90;99.90
48836;DHT22;62581;47.342;7.908;2022-11-15T05:43:38;8.90;99.90
48836;DHT22;62581;47.342;7.908;2022-11-15T05:46:05;9.00;99.90
48836;DHT22;62581;47.342;7.908;2022-11-15T05:48:34;9.00;99.90
48836;DHT22;62581;47.342;7.908;2022-11-15T05:51:02;9.00;99.90
48836;DHT22;62581;47.342;7.908;2022-11-15T05:53:30;9.00;99.90
48836;DHT22;62581;47.342;7.908;2022-11-15T05:55:57;9.00;99.90
48836;DHT22;62581;47.342;7.908;2022-11-15T05:58:24;9.00;99.90
48836;DHT22;62581;47.342;7.908;2022-11-15T06:00:51;9.00;99.90
48836;DHT22;62581;47.342;7.908;2022-11-15T06:03:18;9.00;99.90
48836;DHT22;62581;47.342;7.908;2022-11-15T06:05:46;9.00;99.90
48836;DHT22;62581;47.342;7.908;2022-11-15T06:08:13;9.00;99.90
48836;DHT22;62581;47.342;7.908;2022-11-15T06:10:40;8.90;99.90
48836;DHT22;62581;47.342;7.908;2022-11-15T06:13:07;8.90;99.90
48836;DHT22;62581;47.342;7.908;2022-11-15T06:15:33;8.90;99.90
48836;DHT22;62581;47.342;7.908;2022-11-15T06:18:00;9.00;99.90
48836;DHT22;62581;47.342;7.908;2022-11-15T06:20:28;9.00;99.90
48836;DHT22;62581;47.342;7.908;2022-11-15T06:22:57;8.90;99.90
48836;DHT22;62581;47.342;7.908;2022-11-15T06:25:24;9.00;99.90
48836;DHT22;62581;47.342;7.908;2022-11-15T06:27:51;9.00;99.90
48836;DHT22;62581;47.342;7.908;2022-11-15T06:30:18;9.00;99.90
48836;DHT22;62581;47.342;7.908;2022-11-15T06:32:45;9.00;99.90
48836;DHT22;62581;47.342;7.908;2022-11-15T06:35:12;9.10;99.90
48836;DHT22;62581;47.342;7.908;2022-11-15T06:37:38;9.10;99.90
48836;DHT22;62581;47.342;7.908;2022-11-15T06:40:07;9.10;99.90
48836;DHT22;62581;47.342;7.908;2022-11-15T06:42:34;9.20;99.90
48836;DHT22;62581;47.342;7.908;2022-11-15T06:45:01;9.20;99.90
48836;DHT22;62581;47.342;7.908;2022-11-15T06:47:28;9.20;99.90
48836;DHT22;62581;47.342;7.908;2022-11-15T06:49:55;9.20;99.90
48836;DHT22;62581;47.342;7.908;2022-11-15T06:52:22;9.20;99.90
48836;DHT22;62581;47.342;7.908;2022-11-15T06:54:49;9.20;99.90
48836;DHT22;62581;47.342;7.908;2022-11-15T06:57:19;9.20;99.90
48836;DHT22;62581;47.342;7.908;2022-11-15T06:59:45;9.20;99.90
48836;DHT22;62581;47.342;7.908;2022-11-15T07:02:12;9.20;99.90
48836;DHT22;62581;47.342;7.908;2022-11-15T07:04:39;9.20;99.90
48836;DHT22;62581;47.342;7.908;2022-11-15T07:07:06;9.20;99.90
48836;DHT22;62581;47.342;7.908;2022-11-15T07:09:33;9.20;99.90
48836;DHT22;62581;47.342;7.908;2022-11-15T07:12:00;9.20;99.90
48836;DHT22;62581;47.342;7.908;2022-11-15T07:14:28;9.20;99.90
48836;DHT22;62581;47.342;7.908;2022-11-15T07:16:55;9.20;99.90
48836;DHT22;62581;47.342;7.908;2022-11-15T07:19:23;9.30;99.90
48836;DHT22;62581;47.342;7.908;2022-11-15T07:21:49;9.30;99.90
48836;DHT22;62581;47.342;7.908;2022-11-15T07:24:16;9.40;99.90
48836;DHT22;62581;47.342;7.908;2022-11-15T07:26:43;9.40;99.90
48836;DHT22;62581;47.342;7.908;2022-11-15T07:29:10;9.40;99.90
48836;DHT22;62581;47.342;7.908;2022-11-15T07:31:38;9.40;99.90
48836;DHT22;62581;47.342;7.908;2022-11-15T07:34:05;9.40;99.90
48836;DHT22;62581;47.342;7.908;2022-11-15T07:36:32;9.50;99.90
48836;DHT22;62581;47.342;7.908;2022-11-15T07:38:59;9.60;99.90
48836;DHT22;62581;47.342;7.908;2022-11-15T07:41:26;9.60;99.90
48836;DHT22;62581;47.342;7.908;2022-11-15T07:43:55;9.60;99.90
48836;DHT22;62581;47.342;7.908;2022-11-15T07:46:22;9.70;99.90
48836;DHT22;62581;47.342;7.908;2022-11-15T07:48:51;9.70;99.90
48836;DHT22;62581;47.342;7.908;2022-11-15T07:51:17;9.70;99.90
48836;DHT22;62581;47.342;7.908;2022-11-15T07:53:44;9.70;99.90
48836;DHT22;62581;47.342;7.908;2022-11-15T07:56:11;9.70;99.90
48836;DHT22;62581;47.342;7.908;2022-11-15T07:58:38;9.70;99.90
48836;DHT22;62581;47.342;7.908;2022-11-15T08:01:05;9.70;99.90
48836;DHT22;62581;47.342;7.908;2022-11-15T08:03:33;9.80;99.90
48836;DHT22;62581;47.342;7.908;2022-11-15T08:06:01;9.90;99.90
48836;DHT22;62581;47.342;7.908;2022-11-15T08:08:28;9.90;99.90
48836;DHT22;62581;47.342;7.908;2022-11-15T08:10:56;9.90;99.90
48836;DHT22;62581;47.342;7.908;2022-11-15T08:13:23;9.90;99.90
48836;DHT22;62581;47.342;7.908;2022-11-15T08:15:50;10.00;99.90
48836;DHT22;62581;47.342;7.908;2022-11-15T08:18:17;10.10;99.90
48836;DHT22;62581;47.342;7.908;2022-11-15T08:20:44;10.10;99.90
48836;DHT22;62581;47.342;7.908;2022-11-15T08:23:12;10.10;99.90
48836;DHT22;62581;47.342;7.908;2022-11-15T08:25:39;10.10;99.90
48836;DHT22;62581;47.342;7.908;2022-11-15T08:28:06;10.10;99.90
48836;DHT22;62581;47.342;7.908;2022-11-15T08:30:34;10.10;99.90
48836;DHT22;62581;47.342;7.908;2022-11-15T08:33:02;10.10;99.90
48836;DHT22;62581;47.342;7.908;2022-11-15T08:35:29;10.00;99.90
48836;DHT22;62581;47.342;7.908;2022-11-15T08:37:56;10.00;99.90
48836;DHT22;62581;47.342;7.908;2022-11-15T08:40:24;10.00;99.90
48836;DHT22;62581;47.342;7.908;2022-11-15T08:42:52;10.00;99.90
48836;DHT22;62581;47.342;7.908;2022-11-15T08:45:19;10.00;99.90
48836;DHT22;62581;47.342;7.908;2022-11-15T08:47:45;10.10;99.90
48836;DHT22;62581;47.342;7.908;2022-11-15T08:50:12;10.10;99.90
48836;DHT22;62581;47.342;7.908;2022-11-15T08:52:39;10.10;99.90
48836;DHT22;62581;47.342;7.908;2022-11-15T08:55:06;10.20;99.90
48836;DHT22;62581;47.342;7.908;2022-11-15T08:57:34;10.20;99.90
48836;DHT22;62581;47.342;7.908;2022-11-15T09:00:02;10.30;99.90
48836;DHT22;62581;47.342;7.908;2022-11-15T09:02:29;10.30;99.90
48836;DHT22;62581;47.342;7.908;2022-11-15T09:04:56;10.30;99.90
48836;DHT22;62581;47.342;7.908;2022-11-15T09:07:23;10.40;99.90
48836;DHT22;62581;47.342;7.908;2022-11-15T09:09:50;10.40;99.90
48836;DHT22;62581;47.342;7.908;2022-11-15T09:12:16;10.40;99.90
48836;DHT22;62581;47.342;7.908;2022-11-15T09:14:45;10.40;99.90
48836;DHT22;62581;47.342;7.908;2022-11-15T09:17:11;10.40;99.90
48836;DHT22;62581;47.342;7.908;2022-11-15T09:19:38;10.40;99.90
48836;DHT22;62581;47.342;7.908;2022-11-15T09:22:05;10.40;99.90
48836;DHT22;62581;47.342;7.908;2022-11-15T09:24:33;10.40;99.90
48836;DHT22;62581;47.342;7.908;2022-11-15T09:26:59;10.50;99.90
48836;DHT22;62581;47.342;7.908;2022-11-15T09:29:26;10.50;99.90
48836;DHT22;62581;47.342;7.908;2022-11-15T09:31:54;10.60;99.90
48836;DHT22;62581;47.342;7.908;2022-11-15T09:34:21;10.60;99.90
48836;DHT22;62581;47.342;7.908;2022-11-15T09:36:48;10.60;99.90
48836;DHT22;62581;47.342;7.908;2022-11-15T09:39:15;10.60;99.90
48836;DHT22;62581;47.342;7.908;2022-11-15T09:41:52;10.70;99.90
48836;DHT22;62581;47.342;7.908;2022-11-15T09:44:26;10.70;99.90
48836;DHT22;62581;47.342;7.908;2022-11-15T09:46:59;10.70;99.90
48836;DHT22;62581;47.342;7.908;2022-11-15T09:49:29;10.70;99.90
48836;DHT22;62581;47.342;7.908;2022-11-15T09:51:56;10.70;99.90
48836;DHT22;62581;47.342;7.908;2022-11-15T09:54:26;10.70;99.90
48836;DHT22;62581;47.342;7.908;2022-11-15T09:56:53;10.70;99.90
48836;DHT22;62581;47.342;7.908;2022-11-15T09:59:26;10.70;99.90
48836;DHT22;62581;47.342;7.908;2022-11-15T10:01:59;10.80;99.90
48836;DHT22;62581;47.342;7.908;2022-11-15T10:04:27;10.80;99.90
48836;DHT22;62581;47.342;7.908;2022-11-15T10:06:56;10.80;99.90
48836;DHT22;62581;47.342;7.908;2022-11-15T10:09:25;10.70;99.90
48836;DHT22;62581;47.342;7.908;2022-11-15T10:11:54;10.70;99.90
48836;DHT22;62581;47.342;7.908;2022-11-15T10:14:22;10.70;99.90
48836;DHT22;62581;47.342;7.908;2022-11-15T10:19:34;10.70;99.90
48836;DHT22;62581;47.342;7.908;2022-11-15T10:22:05;10.70;99.90
48836;DHT22;62581;47.342;7.908;2022-11-15T10:24:39;10.60;99.90
48836;DHT22;62581;47.342;7.908;2022-11-15T10:27:07;10.60;99.90
48836;DHT22;62581;47.342;7.908;2022-11-15T10:29:35;10.60;99.90
48836;DHT22;62581;47.342;7.908;2022-11-15T10:32:02;10.70;99.90
48836;DHT22;62581;47.342;7.908;2022-11-15T10:34:34;10.80;99.90
48836;DHT22;62581;47.342;7.908;2022-11-15T10:37:03;10.80;99.90
48836;DHT22;62581;47.342;7.908;2022-11-15T10:39:29;10.90;99.90
48836;DHT22;62581;47.342;7.908;2022-11-15T10:41:57;10.90;99.90
48836;DHT22;62581;47.342;7.908;2022-11-15T10:44:25;11.00;99.90
48836;DHT22;62581;47.342;7.908;2022-11-15T10:47:06;11.10;99.90
48836;DHT22;62581;47.342;7.908;2022-11-15T10:49:52;11.10;99.90
48836;DHT22;62581;47.342;7.908;2022-11-15T10:52:21;11.30;99.90
48836;DHT22;62581;47.342;7.908;2022-11-15T10:54:53;11.40;99.90
48836;DHT22;62581;47.342;7.908;2022-11-15T10:57:22;11.60;99.90
48836;DHT22;62581;47.342;7.908;2022-11-15T10:59:49;11.70;99.90
48836;DHT22;62581;47.342;7.908;2022-11-15T11:02:26;11.80;99.90
48836;DHT22;62581;47.342;7.908;2022-11-15T11:04:53;11.90;99.90
48836;DHT22;62581;47.342;7.908;2022-11-15T11:07:22;12.00;99.90
48836;DHT22;62581;47.342;7.908;2022-11-15T11:09:56;12.10;99.90
48836;DHT22;62581;47.342;7.908;2022-11-15T11:12:26;12.10;99.90
48836;DHT22;62581;47.342;7.908;2022-11-15T11:14:53;12.10;99.90
48836;DHT22;62581;47.342;7.908;2022-11-15T11:17:23;12.20;99.90
48836;DHT22;62581;47.342;7.908;2022-11-15T11:19:56;12.20;99.90
48836;DHT22;62581;47.342;7.908;2022-11-15T11:22:30;12.20;99.90
48836;DHT22;62581;47.342;7.908;2022-11-15T11:25:08;12.20;99.90
48836;DHT22;62581;47.342;7.908;2022-11-15T11:27:41;12.20;99.90
48836;DHT22;62581;47.342;7.908;2022-11-15T11:30:10;12.30;99.90
48836;DHT22;62581;47.342;7.908;2022-11-15T11:35:21;12.30;99.90
48836;DHT22;62581;47.342;7.908;2022-11-15T11:37:52;12.30;99.90
48836;DHT22;62581;47.342;7.908;2022-11-15T11:40:21;12.30;99.90
48836;DHT22;62581;47.342;7.908;2022-11-15T11:42:53;12.40;99.90
48836;DHT22;62581;47.342;7.908;2022-11-15T11:45:40;12.40;99.90
48836;DHT22;62581;47.342;7.908;2022-11-15T11:48:11;12.30;99.90
48836;DHT22;62581;47.342;7.908;2022-11-15T11:50:39;12.20;99.90
48836;DHT22;62581;47.342;7.908;2022-11-15T11:53:11;12.10;99.90
48836;DHT22;62581;47.342;7.908;2022-11-15T11:55:39;12.10;99.90
48836;DHT22;62581;47.342;7.908;2022-11-15T11:58:11;12.00;99.90
48836;DHT22;62581;47.342;7.908;2022-11-15T12:00:39;12.00;99.90
48836;DHT22;62581;47.342;7.908;2022-11-15T12:03:09;12.00;99.90
48836;DHT22;62581;47.342;7.908;2022-11-15T12:05:39;12.00;99.90
48836;DHT22;62581;47.342;7.908;2022-11-15T12:08:25;12.00;99.90
48836;DHT22;62581;47.342;7.908;2022-11-15T12:10:57;12.10;99.90
48836;DHT22;62581;47.342;7.908;2022-11-15T12:13:26;12.10;99.90
48836;DHT22;62581;47.342;7.908;2022-11-15T12:15:59;12.20;99.90
48836;DHT22;62581;47.342;7.908;2022-11-15T12:18:29;12.30;99.90
48836;DHT22;62581;47.342;7.908;2022-11-15T12:20:57;12.30;99.90
48836;DHT22;62581;47.342;7.908;2022-11-15T12:23:27;12.30;99.90
48836;DHT22;62581;47.342;7.908;2022-11-15T12:25:56;12.30;99.90
48836;DHT22;62581;47.342;7.908;2022-11-15T12:28:25;12.30;99.90
48836;DHT22;62581;47.342;7.908;2022-11-15T12:30:56;12.30;99.90
48836;DHT22;62581;47.342;7.908;2022-11-15T12:33:34;12.40;99.90
48836;DHT22;62581;47.342;7.908;2022-11-15T12:36:02;12.40;99.90
48836;DHT22;62581;47.342;7.908;2022-11-15T12:41:16;12.40;99.90
48836;DHT22;62581;47.342;7.908;2022-11-15T12:43:44;12.40;99.90
48836;DHT22;62581;47.342;7.908;2022-11-15T12:46:12;12.50;99.90
48836;DHT22;62581;47.342;7.908;2022-11-15T12:59:49;12.40;99.90
48836;DHT22;62581;47.342;7.908;2022-11-15T13:02:17;12.40;99.90
48836;DHT22;62581;47.342;7.908;2022-11-15T13:04:44;12.40;99.90
48836;DHT22;62581;47.342;7.908;2022-11-15T13:07:42;12.40;99.90
48836;DHT22;62581;47.342;7.908;2022-11-15T13:09:58;12.40;99.90
48836;DHT22;62581;47.342;7.908;2022-11-15T13:17:53;12.80;99.90
48836;DHT22;62581;47.342;7.908;2022-11-15T13:20:22;12.90;99.90
48836;DHT22;62581;47.342;7.908;2022-11-15T13:22:50;12.90;99.90
48836;DHT22;62581;47.342;7.908;2022-11-15T13:25:18;12.90;99.90
48836;DHT22;62581;47.342;7.908;2022-11-15T13:27:46;12.90;99.90
48836;DHT22;62581;47.342;7.908;2022-11-15T13:30:14;12.80;99.90
48836;DHT22;62581;47.342;7.908;2022-11-15T13:32:42;12.70;99.90
48836;DHT22;62581;47.342;7.908;2022-11-15T13:35:17;12.60;99.90
48836;DHT22;62581;47.342;7.908;2022-11-15T13:37:44;12.60;99.90
48836;DHT22;62581;47.342;7.908;2022-11-15T13:43:12;12.60;99.90
48836;DHT22;62581;47.342;7.908;2022-11-15T13:45:40;12.60;99.90
48836;DHT22;62581;47.342;7.908;2022-11-15T13:48:07;12.50;99.90
48836;DHT22;62581;47.342;7.908;2022-11-15T13:50:36;12.50;99.90
48836;DHT22;62581;47.342;7.908;2022-11-15T13:53:03;12.50;99.90
48836;DHT22;62581;47.342;7.908;2022-11-15T13:55:31;12.40;99.90
48836;DHT22;62581;47.342;7.908;2022-11-15T13:57:59;12.40;99.90
48836;DHT22;62581;47.342;7.908;2022-11-15T14:00:33;12.30;99.90
48836;DHT22;62581;47.342;7.908;2022-11-15T14:03:05;12.30;99.90
48836;DHT22;62581;47.342;7.908;2022-11-15T14:05:33;12.20;99.90
48836;DHT22;62581;47.342;7.908;2022-11-15T14:08:03;12.20;99.90
48836;DHT22;62581;47.342;7.908;2022-11-15T14:10:31;12.20;99.90
48836;DHT22;62581;47.342;7.908;2022-11-15T14:12:58;12.10;99.90
48836;DHT22;62581;47.342;7.908;2022-11-15T14:15:27;12.10;99.90
48836;DHT22;62581;47.342;7.908;2022-11-15T14:17:54;12.00;99.90
48836;DHT22;62581;47.342;7.908;2022-11-15T14:20:28;12.00;99.90
48836;DHT22;62581;47.342;7.908;2022-11-15T14:22:56;12.00;99.90
48836;DHT22;62581;47.342;7.908;2022-11-15T14:25:26;11.90;99.90
48836;DHT22;62581;47.342;7.908;2022-11-15T14:28:12;11.90;99.90
48836;DHT22;62581;47.342;7.908;2022-11-15T14:30:40;11.90;99.90
48836;DHT22;62581;47.342;7.908;2022-11-15T14:33:20;11.90;99.90
48836;DHT22;62581;47.342;7.908;2022-11-15T14:35:51;11.90;99.90
48836;DHT22;62581;47.342;7.908;2022-11-15T14:38:18;11.90;99.90
48836;DHT22;62581;47.342;7.908;2022-11-15T14:40:49;11.80;99.90
48836;DHT22;62581;47.342;7.908;2022-11-15T14:43:16;11.90;99.90
48836;DHT22;62581;47.342;7.908;2022-11-15T14:45:43;11.80;99.90
48836;DHT22;62581;47.342;7.908;2022-11-15T14:48:09;11.80;99.90
48836;DHT22;62581;47.342;7.908;2022-11-15T14:50:36;11.80;99.90
48836;DHT22;62581;47.342;7.908;2022-11-15T14:53:04;11.80;99.90
48836;DHT22;62581;47.342;7.908;2022-11-15T14:55:32;11.70;99.90
48836;DHT22;62581;47.342;7.908;2022-11-15T14:58:02;11.70;99.90
48836;DHT22;62581;47.342;7.908;2022-11-15T15:00:29;11.70;99.90
48836;DHT22;62581;47.342;7.908;2022-11-15T15:02:56;11.70;99.90
48836;DHT22;62581;47.342;7.908;2022-11-15T15:05:23;11.70;99.90
48836;DHT22;62581;47.342;7.908;2022-11-15T15:07:50;11.70;99.90
48836;DHT22;62581;47.342;7.908;2022-11-15T15:10:18;11.70;99.90
48836;DHT22;62581;47.342;7.908;2022-11-15T15:12:45;11.60;99.90
48836;DHT22;62581;47.342;7.908;2022-11-15T15:15:14;11.60;99.90
48836;DHT22;62581;47.342;7.908;2022-11-15T15:17:41;11.60;99.90
48836;DHT22;62581;47.342;7.908;2022-11-15T15:20:08;11.60;99.90
48836;DHT22;62581;47.342;7.908;2022-11-15T15:22:35;11.50;99.90
48836;DHT22;62581;47.342;7.908;2022-11-15T15:25:02;11.50;99.90
48836;DHT22;62581;47.342;7.908;2022-11-15T15:27:29;11.50;99.90
48836;DHT22;62581;47.342;7.908;2022-11-15T15:29:56;11.50;99.90
48836;DHT22;62581;47.342;7.908;2022-11-15T15:32:24;11.40;99.90
48836;DHT22;62581;47.342;7.908;2022-11-15T15:34:51;11.40;99.90
48836;DHT22;62581;47.342;7.908;2022-11-15T15:37:22;11.40;99.90
48836;DHT22;62581;47.342;7.908;2022-11-15T15:39:50;11.30;99.90
48836;DHT22;62581;47.342;7.908;2022-11-15T15:42:17;11.30;99.90
48836;DHT22;62581;47.342;7.908;2022-11-15T15:44:44;11.30;99.90
48836;DHT22;62581;47.342;7.908;2022-11-15T15:47:11;11.30;99.90
48836;DHT22;62581;47.342;7.908;2022-11-15T15:49:40;11.20;99.90
48836;DHT22;62581;47.342;7.908;2022-11-15T15:52:06;11.20;99.90
48836;DHT22;62581;47.342;7.908;2022-11-15T15:54:33;11.20;99.90
48836;DHT22;62581;47.342;7.908;2022-11-15T15:57:00;11.20;99.90
48836;DHT22;62581;47.342;7.908;2022-11-15T15:59:27;11.10;99.90
48836;DHT22;62581;47.342;7.908;2022-11-15T16:01:54;11.10;99.90
48836;DHT22;62581;47.342;7.908;2022-11-15T16:04:20;11.10;99.90
48836;DHT22;62581;47.342;7.908;2022-11-15T16:06:48;11.00;99.90
48836;DHT22;62581;47.342;7.908;2022-11-15T16:09:18;11.00;99.90
48836;DHT22;62581;47.342;7.908;2022-11-15T16:12:05;11.00;99.90
48836;DHT22;62581;47.342;7.908;2022-11-15T16:14:32;11.00;99.90
48836;DHT22;62581;47.342;7.908;2022-11-15T16:16:58;11.00;99.90
48836;DHT22;62581;47.342;7.908;2022-11-15T16:19:25;11.00;99.90